createdAt,value
2018-04-26T00:00:24.888Z,70.19
2018-04-26T00:02:52.854Z,70.79
2018-04-26T00:05:20.387Z,70.48
2018-04-26T00:07:48.020Z,70.49
2018-04-26T00:10:15.842Z,70.71
2018-04-26T00:12:43.370Z,71.01
2018-04-26T00:15:10.886Z,70.49
2018-04-26T00:17:38.736Z,70.32
2018-04-26T00:20:06.261Z,70.20
2018-04-26T00:22:34.058Z,70.14
2018-04-26T00:25:01.610Z,70.45
2018-04-26T00:27:29.168Z,70.03
2018-04-26T00:29:56.733Z,70.29
2018-04-26T00:32:24.289Z,70.65
2018-04-26T00:34:51.803Z,70.76
2018-04-26T00:37:19.342Z,70.55
2018-04-26T00:39:46.890Z,70.83
2018-04-26T00:42:14.400Z,71.46
2018-04-26T00:44:41.911Z,71.62
2018-04-26T00:47:09.443Z,71.33
2018-04-26T00:49:36.974Z,71.17
2018-04-26T00:52:04.787Z,71.58
2018-04-26T00:54:32.656Z,71.89
2018-04-26T00:57:00.184Z,72.20
2018-04-26T00:59:27.697Z,72.35
2018-04-26T01:01:55.287Z,72.01
2018-04-26T01:04:22.828Z,71.78
2018-04-26T01:06:50.431Z,71.54
2018-04-26T01:09:18.048Z,71.58
2018-04-26T01:11:45.543Z,71.62
2018-04-26T01:14:13.096Z,71.91
2018-04-26T01:16:40.630Z,72.24
2018-04-26T01:19:08.159Z,71.78
2018-04-26T01:21:35.665Z,72.12
2018-04-26T01:24:03.195Z,71.96
2018-04-26T01:26:30.722Z,71.94
2018-04-26T01:28:58.251Z,71.69
2018-04-26T01:31:25.797Z,71.29
2018-04-26T01:33:53.310Z,71.42
2018-04-26T01:36:32.726Z,71.70
2018-04-26T01:39:00.258Z,71.63
2018-04-26T01:41:28.087Z,71.38
2018-04-26T01:43:55.737Z,71.91
2018-04-26T01:46:23.267Z,72.04
2018-04-26T01:48:50.809Z,71.64
2018-04-26T01:51:18.342Z,71.51
2018-04-26T01:53:45.890Z,71.53
2018-04-26T01:56:13.472Z,71.88
2018-04-26T01:58:41.064Z,71.89
2018-04-26T02:01:08.691Z,72.00
2018-04-26T02:03:36.220Z,71.96
2018-04-26T02:06:04.117Z,72.17
2018-04-26T02:08:31.649Z,72.48
2018-04-26T02:10:59.203Z,72.71
2018-04-26T02:13:26.771Z,73.11
2018-04-26T02:15:54.647Z,73.38
2018-04-26T02:18:22.422Z,73.36
2018-04-26T02:20:49.939Z,73.38
2018-04-26T02:23:17.480Z,73.52
2018-04-26T02:25:45.004Z,73.77
2018-04-26T02:28:12.531Z,73.30
2018-04-26T02:30:40.037Z,73.83
2018-04-26T02:33:07.600Z,73.88
2018-04-26T02:35:35.106Z,74.31
2018-04-26T02:38:02.642Z,74.32
2018-04-26T02:40:30.210Z,74.23
2018-04-26T02:42:57.757Z,74.09
2018-04-26T02:45:25.596Z,74.13
2018-04-26T02:47:53.119Z,74.18
2018-04-26T02:50:20.635Z,73.78
2018-04-26T02:52:48.167Z,73.75
2018-04-26T02:55:15.724Z,73.87
2018-04-26T02:57:43.253Z,74.29
2018-04-26T03:00:10.779Z,74.34
2018-04-26T03:02:38.502Z,74.01
2018-04-26T03:05:06.011Z,73.79
2018-04-26T03:07:33.563Z,73.58
2018-04-26T03:10:01.085Z,73.50
2018-04-26T03:12:28.604Z,73.35
2018-04-26T03:14:56.171Z,72.92
2018-04-26T03:17:23.725Z,73.02
2018-04-26T03:19:51.535Z,72.99
2018-04-26T03:22:19.078Z,72.82
2018-04-26T03:24:46.593Z,72.99
2018-04-26T03:27:14.425Z,72.74
2018-04-26T03:29:41.933Z,72.99
2018-04-26T03:32:09.593Z,73.00
2018-04-26T03:34:37.189Z,72.90
2018-04-26T03:37:04.722Z,72.89
2018-04-26T03:39:32.255Z,73.11
2018-04-26T03:41:59.763Z,73.31
2018-04-26T03:44:27.291Z,73.58
2018-04-26T03:46:54.809Z,73.84
2018-04-26T03:49:22.789Z,73.96
2018-04-26T03:51:50.382Z,73.90
2018-04-26T03:54:17.875Z,73.60
2018-04-26T03:56:45.405Z,73.96
2018-04-26T03:59:12.952Z,74.06
2018-04-26T04:01:52.304Z,74.43
2018-04-26T04:04:31.826Z,74.35
2018-04-26T04:06:59.359Z,74.34
2018-04-26T04:09:26.928Z,74.35
2018-04-26T04:11:54.501Z,74.33
2018-04-26T04:14:22.118Z,74.11
2018-04-26T04:16:49.692Z,73.79
2018-04-26T04:19:17.260Z,73.79
2018-04-26T04:21:44.808Z,73.83
2018-04-26T04:24:12.369Z,73.99
2018-04-26T04:26:39.911Z,74.19
2018-04-26T04:29:07.467Z,74.29
2018-04-26T04:31:34.984Z,74.47
2018-04-26T04:34:02.564Z,74.56
2018-04-26T04:36:30.117Z,74.40
2018-04-26T04:38:57.672Z,74.40
2018-04-26T04:41:25.230Z,74.54
2018-04-26T04:43:52.764Z,74.79
2018-04-26T04:46:20.297Z,74.38
2018-04-26T04:48:47.916Z,73.98
2018-04-26T04:51:15.758Z,74.14
2018-04-26T04:53:43.302Z,73.60
2018-04-26T04:56:10.880Z,73.39
2018-04-26T04:58:38.420Z,73.22
2018-04-26T05:01:05.968Z,73.31
2018-04-26T05:03:33.504Z,72.45
2018-04-26T05:06:01.015Z,72.30
2018-04-26T05:08:28.629Z,72.64
2018-04-26T05:10:56.189Z,72.37
2018-04-26T05:13:24.013Z,72.31
2018-04-26T05:15:51.920Z,72.54
2018-04-26T05:18:19.453Z,72.50
2018-04-26T05:20:46.962Z,72.48
2018-04-26T05:23:14.470Z,72.92
2018-04-26T05:25:42.050Z,73.15
2018-04-26T05:28:09.804Z,73.98
2018-04-26T05:30:37.663Z,73.74
2018-04-26T05:33:05.189Z,74.23
2018-04-26T05:35:32.721Z,74.07
2018-04-26T05:38:00.238Z,74.70
2018-04-26T05:40:27.856Z,75.02
2018-04-26T05:42:55.351Z,74.14
2018-04-26T05:45:23.228Z,74.15
2018-04-26T05:47:50.814Z,74.18
2018-04-26T05:50:18.411Z,73.96
2018-04-26T05:52:45.929Z,73.25
2018-04-26T05:55:13.529Z,73.42
2018-04-26T05:57:41.096Z,73.14
2018-04-26T06:00:08.657Z,72.65
2018-04-26T06:02:36.202Z,71.82
2018-04-26T06:05:03.799Z,72.21
2018-04-26T06:07:31.311Z,71.86
2018-04-26T06:09:58.980Z,71.49
2018-04-26T06:12:26.926Z,71.44
2018-04-26T06:14:54.617Z,72.16
2018-04-26T06:17:22.142Z,72.32
2018-04-26T06:19:49.733Z,72.64
2018-04-26T06:22:17.236Z,72.94
2018-04-26T06:24:45.549Z,73.15
2018-04-26T06:27:13.138Z,73.01
2018-04-26T06:29:40.670Z,73.21
2018-04-26T06:32:08.243Z,73.43
2018-04-26T06:34:35.779Z,73.53
2018-04-26T06:37:03.294Z,73.74
2018-04-26T06:39:31.087Z,73.65
2018-04-26T06:41:58.712Z,73.68
2018-04-26T06:44:26.285Z,73.79
2018-04-26T06:46:53.899Z,74.17
2018-04-26T06:49:21.489Z,74.42
2018-04-26T06:51:49.104Z,74.47
2018-04-26T06:54:17.010Z,74.61
2018-04-26T06:56:44.535Z,74.89
2018-04-26T06:59:12.110Z,74.96
2018-04-26T07:01:39.677Z,75.67
2018-04-26T07:04:08.152Z,75.74
2018-04-26T07:06:35.712Z,76.56
2018-04-26T07:09:03.787Z,76.80
2018-04-26T07:11:31.423Z,76.75
2018-04-26T07:13:58.928Z,76.60
2018-04-26T07:16:26.535Z,77.98
2018-04-26T07:18:54.129Z,77.64
2018-04-26T07:21:21.708Z,78.25
2018-04-26T07:23:49.234Z,77.92
2018-04-26T07:26:16.879Z,77.59
2018-04-26T07:28:44.414Z,78.11
2018-04-26T07:31:11.960Z,77.45
2018-04-26T07:33:40.450Z,76.68
2018-04-26T07:36:07.982Z,76.85
2018-04-26T07:38:37.321Z,75.65
2018-04-26T07:41:04.983Z,73.80
2018-04-26T07:43:32.924Z,73.35
2018-04-26T07:46:00.479Z,73.03
2018-04-26T07:48:28.000Z,71.99
2018-04-26T07:50:55.540Z,71.27
2018-04-26T07:53:23.352Z,69.40
2018-04-26T07:55:50.941Z,68.26
2018-04-26T07:58:18.567Z,67.80
2018-04-26T08:00:46.187Z,66.20
2018-04-26T08:03:13.757Z,65.83
2018-04-26T08:05:41.372Z,65.52
2018-04-26T08:08:09.546Z,65.83
2018-04-26T08:10:37.399Z,65.17
2018-04-26T08:13:04.997Z,64.62
2018-04-26T08:15:32.537Z,64.02
2018-04-26T08:18:00.397Z,62.52
2018-04-26T08:20:27.969Z,63.08
2018-04-26T08:22:56.372Z,62.68
2018-04-26T08:25:23.928Z,66.03
2018-04-26T08:27:51.454Z,68.33
2018-04-26T08:30:19.312Z,71.93
2018-04-26T08:32:46.850Z,73.19
2018-04-26T08:35:14.378Z,69.98
2018-04-26T08:37:41.965Z,71.71
2018-04-26T08:40:09.503Z,73.55
2018-04-26T08:42:37.051Z,74.63
2018-04-26T08:45:04.881Z,76.75
2018-04-26T08:47:32.665Z,77.88
2018-04-26T08:50:00.240Z,78.22
2018-04-26T08:52:27.898Z,78.01
2018-04-26T08:54:55.436Z,78.60
2018-04-26T08:57:23.025Z,78.65
2018-04-26T08:59:50.658Z,78.64
2018-04-26T09:02:18.757Z,78.53
2018-04-26T09:04:46.351Z,79.56
2018-04-26T09:07:13.977Z,81.19
2018-04-26T09:09:41.543Z,81.15
2018-04-26T09:12:09.382Z,82.66
2018-04-26T09:14:37.262Z,83.81
2018-04-26T09:17:04.874Z,83.40
2018-04-26T09:19:32.444Z,83.85
2018-04-26T09:22:00.154Z,83.39
2018-04-26T09:24:27.758Z,83.99
2018-04-26T09:26:55.365Z,83.35
2018-04-26T09:29:22.937Z,82.68
2018-04-26T09:31:50.510Z,82.62
2018-04-26T09:34:18.400Z,82.30
2018-04-26T09:36:46.033Z,81.93
2018-04-26T09:39:15.126Z,81.16
2018-04-26T09:41:42.682Z,80.80
2018-04-26T09:44:10.798Z,79.99
2018-04-26T09:46:38.399Z,78.53
2018-04-26T09:49:05.949Z,75.60
2018-04-26T09:51:33.512Z,75.30
2018-04-26T09:54:01.404Z,74.02
2018-04-26T09:56:28.927Z,73.70
2018-04-26T09:58:56.429Z,73.84
2018-04-26T10:01:27.909Z,76.12
2018-04-26T10:03:55.421Z,75.40
2018-04-26T10:06:29.456Z,76.45
2018-04-26T10:08:57.310Z,73.60
2018-04-26T10:11:24.840Z,73.19
2018-04-26T10:13:52.477Z,73.97
2018-04-26T10:16:20.029Z,73.33
2018-04-26T10:18:47.586Z,71.84
2018-04-26T10:21:15.173Z,72.23
2018-04-26T10:23:42.748Z,69.48
2018-04-26T10:26:10.539Z,68.92
2018-04-26T10:28:38.086Z,66.94
2018-04-26T10:31:05.613Z,64.74
2018-04-26T10:33:33.232Z,66.09
2018-04-26T10:36:00.853Z,66.97
2018-04-26T10:38:29.146Z,68.85
2018-04-26T10:40:56.754Z,68.37
2018-04-26T10:43:24.322Z,68.76
2018-04-26T10:45:51.827Z,68.62
2018-04-26T10:48:19.455Z,66.62
2018-04-26T10:50:47.030Z,63.31
2018-04-26T10:53:14.550Z,63.41
2018-04-26T10:55:42.132Z,62.88
2018-04-26T10:58:10.539Z,61.14
2018-04-26T11:00:38.244Z,60.24
2018-04-26T11:03:06.133Z,62.19
2018-04-26T11:05:34.355Z,63.65
2018-04-26T11:08:02.008Z,64.15
2018-04-26T11:10:29.666Z,63.12
2018-04-26T11:12:57.208Z,59.15
2018-04-26T11:15:24.891Z,58.44
2018-04-26T11:17:52.429Z,57.90
2018-04-26T11:20:20.041Z,60.86
2018-04-26T11:22:47.655Z,61.22
2018-04-26T11:25:15.213Z,61.91
2018-04-26T11:27:42.821Z,61.30
2018-04-26T11:30:10.330Z,62.47
2018-04-26T11:32:37.922Z,60.05
2018-04-26T11:35:05.482Z,61.05
2018-04-26T11:37:33.039Z,63.90
2018-04-26T11:40:00.635Z,64.69
2018-04-26T11:42:28.220Z,64.95
2018-04-26T11:44:56.184Z,65.36
2018-04-26T11:47:23.732Z,63.55
2018-04-26T11:49:51.675Z,63.41
2018-04-26T11:52:19.205Z,63.35
2018-04-26T11:54:46.846Z,56.80
2018-04-26T11:57:14.458Z,53.02
2018-04-26T11:59:42.003Z,50.28
2018-04-26T12:02:09.528Z,49.82
2018-04-26T12:04:37.042Z,52.92
2018-04-26T12:07:04.841Z,57.08
2018-04-26T12:09:32.359Z,57.25
2018-04-26T12:11:59.898Z,56.21
2018-04-26T12:14:27.423Z,52.33
2018-04-26T12:16:54.928Z,52.96
2018-04-26T12:19:22.473Z,55.54
2018-04-26T12:21:50.061Z,55.98
2018-04-26T12:24:17.608Z,51.39
2018-04-26T12:26:45.713Z,45.97
2018-04-26T12:29:13.348Z,40.49
2018-04-26T12:31:40.869Z,38.45
2018-04-26T12:34:08.844Z,37.15
2018-04-26T12:36:36.548Z,37.09
2018-04-26T12:39:04.353Z,35.60
2018-04-26T12:41:31.962Z,38.10
2018-04-26T12:43:59.781Z,41.31
2018-04-26T12:46:27.350Z,44.25
2018-04-26T12:48:54.898Z,47.38
2018-04-26T12:51:22.481Z,51.25
2018-04-26T12:53:50.031Z,53.76
2018-04-26T12:56:17.659Z,55.26
2018-04-26T12:58:45.268Z,57.21
2018-04-26T13:01:13.160Z,58.46
2018-04-26T13:03:41.148Z,58.15
2018-04-26T13:06:08.861Z,58.90
2018-04-26T13:08:36.438Z,58.30
2018-04-26T13:11:04.332Z,59.41
2018-04-26T13:13:32.077Z,62.75
2018-04-26T13:15:59.612Z,64.15
2018-04-26T13:18:27.170Z,65.33
2018-04-26T13:20:54.681Z,66.10
2018-04-26T13:23:22.357Z,66.00
2018-04-26T13:25:49.879Z,66.57
2018-04-26T13:28:17.461Z,63.63
2018-04-26T13:30:45.031Z,57.57
2018-04-26T13:33:12.589Z,51.68
2018-04-26T13:35:40.120Z,49.78
2018-04-26T13:38:07.672Z,47.51
2018-04-26T13:40:35.280Z,46.93
2018-04-26T13:43:02.806Z,44.82
2018-04-26T13:45:30.506Z,46.20
2018-04-26T13:47:58.108Z,49.10
2018-04-26T13:50:26.647Z,51.10
2018-04-26T13:52:54.369Z,52.14
2018-04-26T13:55:21.956Z,53.22
2018-04-26T13:57:49.543Z,56.22
2018-04-26T14:00:17.292Z,55.92
2018-04-26T14:02:45.565Z,56.70
2018-04-26T14:05:13.209Z,57.31
2018-04-26T14:07:40.753Z,56.91
2018-04-26T14:10:08.338Z,52.13
2018-04-26T14:12:36.168Z,53.14
2018-04-26T14:15:03.792Z,53.87
2018-04-26T14:17:31.388Z,52.17
2018-04-26T14:19:59.266Z,51.06
2018-04-26T14:22:27.001Z,47.51
2018-04-26T14:24:54.889Z,48.05
2018-04-26T14:27:22.416Z,47.21
2018-04-26T14:29:50.046Z,47.46
2018-04-26T14:32:17.636Z,47.52
2018-04-26T14:34:45.276Z,46.94
2018-04-26T14:37:14.417Z,45.77
2018-04-26T14:39:41.912Z,47.02
2018-04-26T14:42:10.127Z,48.94
2018-04-26T14:44:37.719Z,47.92
2018-04-26T14:47:05.289Z,47.83
2018-04-26T14:49:32.935Z,46.72
2018-04-26T14:52:00.489Z,47.72
2018-04-26T14:54:28.078Z,50.92
2018-04-26T14:56:55.739Z,51.67
2018-04-26T14:59:23.429Z,52.38
2018-04-26T15:01:52.404Z,54.06
2018-04-26T15:04:20.125Z,56.17
2018-04-26T15:06:48.340Z,60.14
2018-04-26T15:09:16.057Z,63.27
2018-04-26T15:11:43.628Z,65.06
2018-04-26T15:14:11.536Z,66.92
2018-04-26T15:16:39.059Z,68.53
2018-04-26T15:19:07.792Z,69.06
2018-04-26T15:21:35.330Z,66.40
2018-04-26T15:24:02.865Z,68.80
2018-04-26T15:26:30.441Z,68.34
2018-04-26T15:28:57.976Z,68.06
2018-04-26T15:31:25.538Z,68.17
2018-04-26T15:33:54.116Z,68.21
2018-04-26T15:36:21.713Z,68.39
2018-04-26T15:38:49.477Z,66.89
2018-04-26T15:41:17.197Z,67.45
2018-04-26T15:43:44.769Z,67.51
2018-04-26T15:46:12.335Z,67.49
2018-04-26T15:48:41.645Z,66.56
2018-04-26T15:51:10.026Z,67.10
2018-04-26T15:53:49.351Z,66.32
2018-04-26T15:56:54.414Z,65.11
2018-04-26T15:59:33.695Z,65.12
2018-04-26T16:05:35.086Z,65.09
2018-04-26T16:08:20.751Z,63.67
2018-04-26T16:11:06.027Z,64.75
2018-04-26T16:13:51.256Z,62.92
2018-04-26T16:16:36.250Z,64.33
2018-04-26T16:19:28.290Z,64.43
2018-04-26T16:22:13.536Z,64.10
2018-04-26T16:24:53.918Z,65.54
2018-04-26T16:27:38.855Z,65.93
2018-04-26T16:30:18.068Z,66.11
2018-04-26T16:33:03.416Z,66.67
2018-04-26T16:35:42.638Z,66.91
2018-04-26T16:38:21.905Z,65.69
2018-04-26T16:40:49.424Z,66.84
2018-04-26T16:43:17.212Z,66.83
2018-04-26T16:45:44.755Z,65.65
2018-04-26T16:48:12.670Z,63.07
2018-04-26T16:50:40.215Z,63.19
2018-04-26T16:53:09.113Z,61.55
2018-04-26T16:55:36.762Z,61.10
2018-04-26T16:58:04.558Z,60.66
2018-04-26T17:00:32.794Z,61.06
2018-04-26T17:03:00.667Z,61.61
2018-04-26T17:05:28.225Z,61.12
2018-04-26T17:07:55.757Z,61.35
2018-04-26T17:10:23.416Z,61.50
2018-04-26T17:12:50.949Z,61.65
2018-04-26T17:15:18.512Z,61.80
2018-04-26T17:17:46.058Z,61.79
2018-04-26T17:20:13.571Z,62.35
2018-04-26T17:22:41.191Z,62.35
2018-04-26T17:25:08.706Z,62.68
2018-04-26T17:27:36.312Z,62.77
2018-04-26T17:30:05.496Z,63.54
2018-04-26T17:32:33.239Z,63.68
2018-04-26T17:35:00.799Z,64.01
2018-04-26T17:37:28.347Z,64.10
2018-04-26T17:39:55.889Z,65.08
2018-04-26T17:42:23.478Z,65.79
2018-04-26T17:44:50.997Z,65.77
2018-04-26T17:47:18.631Z,66.36
2018-04-26T17:49:46.218Z,66.82
2018-04-26T17:52:13.776Z,67.63
2018-04-26T17:54:41.352Z,67.65
2018-04-26T17:57:08.931Z,68.39
2018-04-26T17:59:36.597Z,68.73
2018-04-26T18:02:04.158Z,69.24
2018-04-26T18:04:31.706Z,69.67
2018-04-26T18:06:59.301Z,69.81
2018-04-26T18:09:26.918Z,69.85
2018-04-26T18:11:54.838Z,68.58
2018-04-26T18:14:22.582Z,68.90
2018-04-26T18:16:50.151Z,68.57
2018-04-26T18:19:17.685Z,68.34
2018-04-26T18:21:45.244Z,67.48
2018-04-26T18:24:12.807Z,67.79
2018-04-26T18:26:40.408Z,67.81
2018-04-26T18:29:08.313Z,67.47
2018-04-26T18:31:35.901Z,67.51
2018-04-26T18:34:03.442Z,67.46
2018-04-26T18:36:30.994Z,67.69
2018-04-26T18:38:58.559Z,67.64
2018-04-26T18:41:26.100Z,67.78
2018-04-26T18:43:54.039Z,67.56
2018-04-26T18:46:21.741Z,67.90
2018-04-26T18:48:49.295Z,67.72
2018-04-26T18:51:16.963Z,67.87
2018-04-26T18:53:46.124Z,68.20
2018-04-26T18:56:13.962Z,68.35
2018-04-26T18:58:41.815Z,67.82
2018-04-26T19:01:09.342Z,67.63
2018-04-26T19:03:36.922Z,68.00
2018-04-26T19:06:04.457Z,68.20
2018-04-26T19:08:31.991Z,68.80
2018-04-26T19:10:59.533Z,68.71
2018-04-26T19:13:27.093Z,69.11
2018-04-26T19:15:54.641Z,69.26
2018-04-26T19:18:22.262Z,69.30
2018-04-26T19:20:49.768Z,69.97
2018-04-26T19:23:17.560Z,70.30
2018-04-26T19:25:45.090Z,70.04
2018-04-26T19:28:12.657Z,70.12
2018-04-26T19:30:44.983Z,70.46
2018-04-26T19:33:12.537Z,70.06
2018-04-26T19:35:40.092Z,70.57
2018-04-26T19:38:09.833Z,70.84
2018-04-26T19:40:37.980Z,71.03
2018-04-26T19:43:05.686Z,71.52
2018-04-26T19:45:33.826Z,71.21
2018-04-26T19:48:01.861Z,71.94
2018-04-26T19:50:29.499Z,72.49
2018-04-26T19:52:57.524Z,72.07
2018-04-26T19:55:25.050Z,71.94
2018-04-26T19:57:52.960Z,71.69
2018-04-26T20:00:20.682Z,71.82
2018-04-26T20:02:48.198Z,71.66
2018-04-26T20:05:15.765Z,72.19
2018-04-26T20:07:43.307Z,72.26
2018-04-26T20:10:10.858Z,72.00
2018-04-26T20:12:38.630Z,72.34
2018-04-26T20:15:06.184Z,72.27
2018-04-26T20:17:34.022Z,72.41
2018-04-26T20:20:02.024Z,72.28
2018-04-26T20:22:29.773Z,72.40
2018-04-26T20:24:57.346Z,72.79
2018-04-26T20:27:25.084Z,72.85
2018-04-26T20:29:52.970Z,72.76
2018-04-26T20:32:20.505Z,72.64
2018-04-26T20:34:48.620Z,72.66
2018-04-26T20:37:17.316Z,72.22
2018-04-26T20:39:44.847Z,71.96
2018-04-26T20:42:12.568Z,71.81
2018-04-26T20:44:48.142Z,71.52
2018-04-26T20:47:15.664Z,70.63
2018-04-26T20:49:43.296Z,70.62
2018-04-26T20:52:10.872Z,70.61
2018-04-26T20:54:38.630Z,70.82
2018-04-26T20:57:06.271Z,70.94
2018-04-26T20:59:33.823Z,70.93
2018-04-26T21:02:01.392Z,70.94
2018-04-26T21:04:29.031Z,71.45
2018-04-26T21:06:56.722Z,71.87
2018-04-26T21:09:24.695Z,71.42
2018-04-26T21:11:52.653Z,71.56
2018-04-26T21:14:20.455Z,71.31
2018-04-26T21:16:48.176Z,71.13
2018-04-26T21:19:15.760Z,71.04
2018-04-26T21:21:43.523Z,70.91
2018-04-26T21:24:11.106Z,71.07
2018-04-26T21:26:38.725Z,70.97
2018-04-26T21:29:06.421Z,71.00
2018-04-26T21:31:34.263Z,70.86
2018-04-26T21:34:01.791Z,71.13
2018-04-26T21:36:29.378Z,71.33
2018-04-26T21:38:56.923Z,71.73
2018-04-26T21:41:24.559Z,72.09
2018-04-26T21:43:52.086Z,72.01
2018-04-26T21:46:19.612Z,72.18
2018-04-26T21:48:47.199Z,72.31
2018-04-26T21:51:21.020Z,72.76
2018-04-26T21:53:54.137Z,72.78
2018-04-26T21:56:27.284Z,72.85
2018-04-26T21:59:00.680Z,73.20
2018-04-26T22:01:33.681Z,73.42
2018-04-26T22:07:01.453Z,73.73
2018-04-26T22:09:28.967Z,73.86
2018-04-26T22:11:56.547Z,74.13
2018-04-26T22:14:24.065Z,74.27
2018-04-26T22:16:51.596Z,74.49
2018-04-26T22:19:19.119Z,74.62
2018-04-26T22:21:46.685Z,74.56
2018-04-26T22:24:14.242Z,74.43
2018-04-26T22:26:41.768Z,74.26
2018-04-26T22:29:09.608Z,74.74
2018-04-26T22:31:37.152Z,74.71
2018-04-26T22:34:04.682Z,75.12
2018-04-26T22:36:32.221Z,74.93
2018-04-26T22:38:59.749Z,74.94
2018-04-26T22:41:27.300Z,74.64
2018-04-26T22:43:54.799Z,74.81
2018-04-26T22:46:22.328Z,74.88
2018-04-26T22:48:49.916Z,74.78
2018-04-26T22:51:17.447Z,74.86
2018-04-26T22:53:45.119Z,75.10
2018-04-26T22:56:12.652Z,74.93
2018-04-26T22:58:40.181Z,74.96
2018-04-26T23:01:07.789Z,74.93
2018-04-26T23:03:35.332Z,74.99
2018-04-26T23:06:02.932Z,75.07
2018-04-26T23:08:30.457Z,75.50
2018-04-26T23:10:57.997Z,75.60
2018-04-26T23:13:25.497Z,75.48
2018-04-26T23:15:53.002Z,75.53
2018-04-26T23:18:20.526Z,75.99
2018-04-26T23:20:48.056Z,75.90
2018-04-26T23:23:15.604Z,75.86
2018-04-26T23:25:43.134Z,75.87
2018-04-26T23:28:10.692Z,76.15
2018-04-26T23:30:38.213Z,76.07
2018-04-26T23:33:06.361Z,75.90
2018-04-26T23:35:33.907Z,76.19
2018-04-26T23:38:01.425Z,75.95
2018-04-26T23:40:28.986Z,76.04
2018-04-26T23:42:56.602Z,76.30
2018-04-26T23:45:24.154Z,76.14
2018-04-26T23:47:51.686Z,76.80
2018-04-26T23:50:19.228Z,76.83
2018-04-26T23:52:46.837Z,76.91
2018-04-26T23:55:14.414Z,76.85
2018-04-26T23:57:41.964Z,76.66
